Normed Antwerpen — V2DG9 — position and weather

sailwx.info

Track history (hours):
 
Tides and Currents Weather Stations Pressure Air Temp Water Temp Dewpoint Dewpoint Depression Visibility Wind Speed Wind Dir Waves Ship Positions

Normed Antwerpen

Last reported at 2016-Sep-26 15:29 UTC. Time now 2016-Sep-26 17:18 UTC.
Position N 54°50' W 000°60'.

Length 130 m; draft 6.2 m.

Type: Ship. MMSI: 305210993.

Date/timePositionNaut miles runAvg speedWind from/ knotsBaromVisibWave heightAir tempDewpointWater temp
2016-Sep-26 15:29N 54°50' W 000°60'1 0.4
2016-Sep-26 13:30N 54°50' W 000°59'1 0.4
2016-Sep-26 11:27N 54°50' W 000°60'1 0.3
2016-Sep-26 08:30N 54°50' W 000°59'0 0.0
2016-Sep-26 02:31N 54°50' W 000°59'1 0.8
2016-Sep-26 01:33N 54°50' W 000°60'0 0.2
2016-Sep-26 00:30N 54°50' W 000°60'0 0.0
2016-Sep-25 21:33N 54°50' W 000°60'2 0.6
2016-Sep-25 17:33N 54°49' W 000°57'2 2.3
2016-Sep-25 16:31N 54°50' W 000°60'1 0.8
2016-Sep-25 15:33N 54°50' W 000°59'0 0.0
2016-Sep-25 14:31N 54°50' W 000°59'241120.2
2016-Sep-25 12:31N 51°07' E 001°32'1212.1
2016-Sep-25 11:33N 51°15' E 001°46'238220.8
2016-Sep-25 10:29N 54°50' W 000°60'2 2.5
2016-Sep-25 09:33N 54°49' W 000°57'2 0.8
2016-Sep-25 07:34N 54°50' W 000°59'1 0.3
2016-Sep-25 04:32N 54°50' W 000°60'12832.1
2016-Sep-25 00:33N 53°11' E 001°18'12763.6
2016-Sep-24 22:33N 54°50' W 000°59'0 0.0
2016-Sep-24 21:33N 54°50' W 000°59'0 0.0
2016-Sep-24 19:33N 54°50' W 000°59'0 0.0
2016-Sep-24 18:33N 54°50' W 000°59'1 0.8
2016-Sep-24 17:33N 54°50' W 000°60'1 0.8
2016-Sep-24 16:33N 54°50' W 000°59'0 0.0
2016-Sep-24 14:33N 54°50' W 000°59'16 7.9
2016-Sep-24 12:34N 55°01' W 001°18'7 3.4
2016-Sep-24 10:33N 55°06' W 001°27'0 0.1
2016-Sep-24 09:34N 55°06' W 001°27'0 0.0
2016-Sep-24 03:34N 55°06' W 001°27'0 0.0
2016-Sep-24 02:33N 55°06' W 001°27'0 0.0
2016-Sep-24 01:34N 55°06' W 001°27'0 0.0
2016-Sep-24 00:34N 55°06' W 001°27'0 0.0
2016-Sep-23 19:34N 55°06' W 001°26'0 0.0
2016-Sep-23 17:34N 55°06' W 001°26'0 0.0
2016-Sep-23 16:34N 55°06' W 001°26'1515.1
2016-Sep-23 15:33N 54°55' W 001°08'0 0.0
2016-Sep-23 13:33N 54°55' W 001°08'4912.3
2016-Sep-23 09:33N 54°19' W 000°10'3511.5
2016-Sep-23 06:33N 53°50' E 000°22'5112.7
2016-Sep-23 02:33N 53°12' E 001°19'1211.7
2016-Sep-23 01:33N 53°02' E 001°28'1110.7
2016-Sep-23 00:33N 52°53' E 001°40'1010.1
2016-Sep-22 23:33N 52°48' E 001°54'4012.1
2016-Sep-22 20:14N 52°10' E 002°15'69 9.0
2016-Sep-22 12:32N 51°27' E 003°43'0 0.0
2016-Sep-22 04:31N 51°27' E 003°43'0 0.0
2016-Sep-22 03:31N 51°27' E 003°43'0 0.0
2016-Sep-22 00:32N 51°27' E 003°43'0 0.0
2016-Sep-21 23:32N 51°27' E 003°43'0 0.0
2016-Sep-21 22:31N 51°27' E 003°43'0 0.0
2016-Sep-21 19:34N 51°27' E 003°43'12 4.0
2016-Sep-21 16:33N 51°24' E 004°02'17 2.4
2016-Sep-21 09:33N 51°15' E 004°24'0 0.0
2016-Sep-21 08:33N 51°15' E 004°24'0 0.0
2016-Sep-21 05:32N 51°15' E 004°24'0 0.0
2016-Sep-21 03:31N 51°15' E 004°24'0 0.0
2016-Sep-21 02:33N 51°15' E 004°24'0 0.0
2016-Sep-20 17:33N 51°15' E 004°24'0 0.0
2016-Sep-20 14:31N 51°15' E 004°24'0 0.0
2016-Sep-20 13:31N 51°15' E 004°24'0 0.0
2016-Sep-20 10:33N 51°15' E 004°24'0 0.0
2016-Sep-20 08:32N 51°15' E 004°24'0 0.0
2016-Sep-20 07:31N 51°15' E 004°24'0 0.0
2016-Sep-20 06:31N 51°15' E 004°24'0 0.0
2016-Sep-20 02:32N 51°15' E 004°24'0 0.0
2016-Sep-19 23:31N 51°15' E 004°24'3 0.7
2016-Sep-19 19:31N 51°17' E 004°21'0 0.0
2016-Sep-19 18:28N 51°17' E 004°21'0 0.0
2016-Sep-19 16:33N 51°17' E 004°21'0 0.0
2016-Sep-19 14:17N 51°17' E 004°21'0 0.0
2016-Sep-19 13:29N 51°17' E 004°21'0 0.0
2016-Sep-19 12:31N 51°17' E 004°21'0 0.0
2016-Sep-19 11:31N 51°17' E 004°21'0 0.0
2016-Sep-19 09:33N 51°17' E 004°21'0 0.0
2016-Sep-19 07:32N 51°17' E 004°21'0 0.0
2016-Sep-19 06:32N 51°17' E 004°21'0 0.0
2016-Sep-19 03:24N 51°17' E 004°21'0 0.0
2016-Sep-19 02:33N 51°17' E 004°21'0 0.0
2016-Sep-19 00:32N 51°17' E 004°21'0 0.0
2016-Sep-18 19:27N 51°17' E 004°21'0 0.0
2016-Sep-18 15:31N 51°17' E 004°21'0 0.0
2016-Sep-18 14:25N 51°17' E 004°21'0 0.0
2016-Sep-18 10:32N 51°17' E 004°21'0 0.0
2016-Sep-18 09:32N 51°17' E 004°21'0 0.0
2016-Sep-18 02:33N 51°17' E 004°21'0 0.0
2016-Sep-18 01:31N 51°17' E 004°21'0 0.0
2016-Sep-18 00:31N 51°17' E 004°21'0 0.0
2016-Sep-17 22:30N 51°17' E 004°21'0 0.0
2016-Sep-17 21:26N 51°17' E 004°21'0 0.0
2016-Sep-17 20:32N 51°17' E 004°21'0 0.0
2016-Sep-17 19:13N 51°17' E 004°21'1 0.1
2016-Sep-17 13:33N 51°17' E 004°20'4 3.9
2016-Sep-17 12:33N 51°21' E 004°17'13 6.4
2016-Sep-17 10:34N 51°25' E 003°58'1211.5
2016-Sep-17 09:34N 51°25' E 003°39'1110.9
2016-Sep-17 08:33N 51°32' E 003°26'1313.3
2016-Sep-17 07:33N 51°43' E 003°14'8912.7
2016-Sep-17 00:33N 53°04' E 004°14'8912.8
2016-Sep-16 17:33N 53°49' E 006°24'2814.0
2016-Sep-16 15:34N 53°56' E 007°10'  
Track history (hours):
 
Tides and Currents Weather Stations Pressure Air Temp Water Temp Dewpoint Dewpoint Depression Visibility Wind Speed Wind Dir Waves Ship Positions

Normed Antwerpen

Last reported at 2016-Sep-26 15:29 UTC. Time now 2016-Sep-26 17:18 UTC.
Position N 54°50' W 000°60'.

Length 130 m; draft 6.2 m.

Type: Ship. MMSI: 305210993.

Date/timePositionNaut miles runAvg speedWind from/ knotsBaromVisibWave heightAir tempDewpointWater temp
2016-Sep-26 15:29N 54°50' W 000°60'1 0.4
2016-Sep-26 13:30N 54°50' W 000°59'1 0.4
2016-Sep-26 11:27N 54°50' W 000°60'1 0.3
2016-Sep-26 08:30N 54°50' W 000°59'0 0.0
2016-Sep-26 02:31N 54°50' W 000°59'1 0.8
2016-Sep-26 01:33N 54°50' W 000°60'0 0.2
2016-Sep-26 00:30N 54°50' W 000°60'0 0.0
2016-Sep-25 21:33N 54°50' W 000°60'2 0.6
2016-Sep-25 17:33N 54°49' W 000°57'2 2.3
2016-Sep-25 16:31N 54°50' W 000°60'1 0.8
2016-Sep-25 15:33N 54°50' W 000°59'0 0.0
2016-Sep-25 14:31N 54°50' W 000°59'241120.2
2016-Sep-25 12:31N 51°07' E 001°32'1212.1
2016-Sep-25 11:33N 51°15' E 001°46'238220.8
2016-Sep-25 10:29N 54°50' W 000°60'2 2.5
2016-Sep-25 09:33N 54°49' W 000°57'2 0.8
2016-Sep-25 07:34N 54°50' W 000°59'1 0.3
2016-Sep-25 04:32N 54°50' W 000°60'12832.1
2016-Sep-25 00:33N 53°11' E 001°18'12763.6
2016-Sep-24 22:33N 54°50' W 000°59'0 0.0
2016-Sep-24 21:33N 54°50' W 000°59'0 0.0
2016-Sep-24 19:33N 54°50' W 000°59'0 0.0
2016-Sep-24 18:33N 54°50' W 000°59'1 0.8
2016-Sep-24 17:33N 54°50' W 000°60'1 0.8
2016-Sep-24 16:33N 54°50' W 000°59'0 0.0
2016-Sep-24 14:33N 54°50' W 000°59'16 7.9
2016-Sep-24 12:34N 55°01' W 001°18'7 3.4
2016-Sep-24 10:33N 55°06' W 001°27'0 0.1
2016-Sep-24 09:34N 55°06' W 001°27'0 0.0
2016-Sep-24 03:34N 55°06' W 001°27'0 0.0
2016-Sep-24 02:33N 55°06' W 001°27'0 0.0
2016-Sep-24 01:34N 55°06' W 001°27'0 0.0
2016-Sep-24 00:34N 55°06' W 001°27'0 0.0
2016-Sep-23 19:34N 55°06' W 001°26'0 0.0
2016-Sep-23 17:34N 55°06' W 001°26'0 0.0
2016-Sep-23 16:34N 55°06' W 001°26'1515.1
2016-Sep-23 15:33N 54°55' W 001°08'0 0.0
2016-Sep-23 13:33N 54°55' W 001°08'4912.3
2016-Sep-23 09:33N 54°19' W 000°10'3511.5
2016-Sep-23 06:33N 53°50' E 000°22'5112.7
2016-Sep-23 02:33N 53°12' E 001°19'1211.7
2016-Sep-23 01:33N 53°02' E 001°28'1110.7
2016-Sep-23 00:33N 52°53' E 001°40'1010.1
2016-Sep-22 23:33N 52°48' E 001°54'4012.1
2016-Sep-22 20:14N 52°10' E 002°15'69 9.0
2016-Sep-22 12:32N 51°27' E 003°43'0 0.0
2016-Sep-22 04:31N 51°27' E 003°43'0 0.0
2016-Sep-22 03:31N 51°27' E 003°43'0 0.0
2016-Sep-22 00:32N 51°27' E 003°43'0 0.0
2016-Sep-21 23:32N 51°27' E 003°43'0 0.0
2016-Sep-21 22:31N 51°27' E 003°43'0 0.0
2016-Sep-21 19:34N 51°27' E 003°43'12 4.0
2016-Sep-21 16:33N 51°24' E 004°02'17 2.4
2016-Sep-21 09:33N 51°15' E 004°24'0 0.0
2016-Sep-21 08:33N 51°15' E 004°24'0 0.0
2016-Sep-21 05:32N 51°15' E 004°24'0 0.0
2016-Sep-21 03:31N 51°15' E 004°24'0 0.0
2016-Sep-21 02:33N 51°15' E 004°24'0 0.0
2016-Sep-20 17:33N 51°15' E 004°24'0 0.0
2016-Sep-20 14:31N 51°15' E 004°24'0 0.0
2016-Sep-20 13:31N 51°15' E 004°24'0 0.0
2016-Sep-20 10:33N 51°15' E 004°24'0 0.0
2016-Sep-20 08:32N 51°15' E 004°24'0 0.0
2016-Sep-20 07:31N 51°15' E 004°24'0 0.0
2016-Sep-20 06:31N 51°15' E 004°24'0 0.0
2016-Sep-20 02:32N 51°15' E 004°24'0 0.0
2016-Sep-19 23:31N 51°15' E 004°24'3 0.7
2016-Sep-19 19:31N 51°17' E 004°21'0 0.0
2016-Sep-19 18:28N 51°17' E 004°21'0 0.0
2016-Sep-19 16:33N 51°17' E 004°21'0 0.0
2016-Sep-19 14:17N 51°17' E 004°21'0 0.0
2016-Sep-19 13:29N 51°17' E 004°21'0 0.0
2016-Sep-19 12:31N 51°17' E 004°21'0 0.0
2016-Sep-19 11:31N 51°17' E 004°21'0 0.0
2016-Sep-19 09:33N 51°17' E 004°21'0 0.0
2016-Sep-19 07:32N 51°17' E 004°21'0 0.0
2016-Sep-19 06:32N 51°17' E 004°21'0 0.0
2016-Sep-19 03:24N 51°17' E 004°21'0 0.0
2016-Sep-19 02:33N 51°17' E 004°21'0 0.0
2016-Sep-19 00:32N 51°17' E 004°21'0 0.0
2016-Sep-18 19:27N 51°17' E 004°21'0 0.0
2016-Sep-18 15:31N 51°17' E 004°21'0 0.0
2016-Sep-18 14:25N 51°17' E 004°21'0 0.0
2016-Sep-18 10:32N 51°17' E 004°21'0 0.0
2016-Sep-18 09:32N 51°17' E 004°21'0 0.0
2016-Sep-18 02:33N 51°17' E 004°21'0 0.0
2016-Sep-18 01:31N 51°17' E 004°21'0 0.0
2016-Sep-18 00:31N 51°17' E 004°21'0 0.0
2016-Sep-17 22:30N 51°17' E 004°21'0 0.0
2016-Sep-17 21:26N 51°17' E 004°21'0 0.0
2016-Sep-17 20:32N 51°17' E 004°21'0 0.0
2016-Sep-17 19:13N 51°17' E 004°21'1 0.1
2016-Sep-17 13:33N 51°17' E 004°20'4 3.9
2016-Sep-17 12:33N 51°21' E 004°17'13 6.4
2016-Sep-17 10:34N 51°25' E 003°58'1211.5
2016-Sep-17 09:34N 51°25' E 003°39'1110.9
2016-Sep-17 08:33N 51°32' E 003°26'1313.3
2016-Sep-17 07:33N 51°43' E 003°14'8912.7
2016-Sep-17 00:33N 53°04' E 004°14'8912.8
2016-Sep-16 17:33N 53°49' E 006°24'2814.0
2016-Sep-16 15:34N 53°56' E 007°10'  

Dump ship's entire track history